createdAt,value
2018-09-30T00:02:27.063Z,44.13
2018-09-30T00:04:58.548Z,39.63
2018-09-30T00:07:30.323Z,43.87
2018-09-30T00:10:00.943Z,43.80
2018-09-30T00:12:31.906Z,43.90
2018-09-30T00:15:04.044Z,35.23
2018-09-30T00:17:35.773Z,45.13
2018-09-30T00:20:06.055Z,35.73
2018-09-30T00:22:36.667Z,42.10
2018-09-30T00:25:12.226Z,36.13
2018-09-30T00:27:43.101Z,36.87
2018-09-30T00:30:14.166Z,36.03
2018-09-30T00:32:44.803Z,30.67
2018-09-30T00:35:16.874Z,35.37
2018-09-30T00:37:47.347Z,35.93
2018-09-30T00:40:17.723Z,34.60
2018-09-30T00:42:48.362Z,36.20
2018-09-30T00:45:18.624Z,44.97
2018-09-30T00:47:49.823Z,39.77
2018-09-30T00:50:21.029Z,37.93
2018-09-30T00:52:52.028Z,50.90
2018-09-30T00:55:24.066Z,40.80
2018-09-30T00:57:54.696Z,43.83
2018-09-30T01:00:25.590Z,41.10
2018-09-30T01:02:56.872Z,38.20
2018-09-30T01:05:28.442Z,45.07
2018-09-30T01:07:59.626Z,38.87
2018-09-30T01:10:30.841Z,44.97
2018-09-30T01:13:01.222Z,46.90
2018-09-30T01:15:32.285Z,48.23
2018-09-30T01:18:03.632Z,49.67
2018-09-30T01:20:34.934Z,52.30
2018-09-30T01:23:06.346Z,44.70
2018-09-30T01:25:38.060Z,48.77
2018-09-30T01:28:09.225Z,50.23
2018-09-30T01:30:40.714Z,44.97
2018-09-30T01:33:11.827Z,48.20
2018-09-30T01:35:42.377Z,44.70
2018-09-30T01:38:14.782Z,44.57
2018-09-30T01:40:45.542Z,47.30
2018-09-30T01:43:17.002Z,52.73
2018-09-30T01:45:47.345Z,43.07
2018-09-30T01:48:17.994Z,49.17
2018-09-30T01:50:48.184Z,45.00
2018-09-30T01:53:18.447Z,49.60
2018-09-30T01:55:49.909Z,47.87
2018-09-30T01:58:20.836Z,51.87
2018-09-30T02:00:51.942Z,48.87
2018-09-30T02:03:23.067Z,51.00
2018-09-30T02:05:53.987Z,50.17
2018-09-30T02:08:25.023Z,50.50
2018-09-30T02:10:55.903Z,58.90
2018-09-30T02:13:26.704Z,52.80
2018-09-30T02:15:58.176Z,54.50
2018-09-30T02:18:28.882Z,49.67
2018-09-30T02:20:59.865Z,59.87
2018-09-30T02:23:30.561Z,54.47
2018-09-30T02:26:01.668Z,52.80
2018-09-30T02:28:32.155Z,51.23
2018-09-30T02:31:02.583Z,54.53
2018-09-30T02:33:33.307Z,48.37
2018-09-30T02:36:04.494Z,52.20
2018-09-30T02:38:35.528Z,58.03
2018-09-30T02:41:06.464Z,47.70
2018-09-30T02:43:37.090Z,50.67
2018-09-30T02:46:09.107Z,49.67
2018-09-30T02:48:40.113Z,50.13
2018-09-30T02:51:11.067Z,47.10
2018-09-30T02:53:42.227Z,53.57
2018-09-30T02:56:12.930Z,47.80
2018-09-30T02:58:44.669Z,43.40
2018-09-30T03:01:15.708Z,53.20
2018-09-30T03:03:47.026Z,40.63
2018-09-30T03:06:23.422Z,45.67
2018-09-30T03:08:59.579Z,48.87
2018-09-30T03:11:30.782Z,47.23
2018-09-30T03:14:01.286Z,40.07
2018-09-30T03:16:31.693Z,43.03
2018-09-30T03:19:03.371Z,44.67
2018-09-30T03:21:34.126Z,44.77
2018-09-30T03:24:05.171Z,46.37
2018-09-30T03:26:36.272Z,45.37
2018-09-30T03:29:07.507Z,47.50
2018-09-30T03:31:38.784Z,40.60
2018-09-30T03:34:09.946Z,48.37
2018-09-30T03:36:40.911Z,37.70
2018-09-30T03:39:12.341Z,41.47
2018-09-30T03:41:42.987Z,40.07
2018-09-30T03:44:14.192Z,42.30
2018-09-30T03:46:44.919Z,42.70
2018-09-30T03:49:15.282Z,39.60
2018-09-30T03:51:45.616Z,42.67
2018-09-30T03:54:16.610Z,45.77
2018-09-30T03:56:47.242Z,36.03
2018-09-30T03:59:18.980Z,42.37
2018-09-30T04:01:49.607Z,39.93
2018-09-30T04:04:21.135Z,37.37
2018-09-30T04:06:52.790Z,42.97
2018-09-30T04:09:23.557Z,44.57
2018-09-30T04:11:55.464Z,43.67
2018-09-30T04:14:26.068Z,41.90
2018-09-30T04:16:57.429Z,38.60
2018-09-30T04:19:28.466Z,36.40
2018-09-30T04:21:59.700Z,37.70
2018-09-30T04:24:30.225Z,38.03
2018-09-30T04:27:01.493Z,41.17
2018-09-30T04:29:32.389Z,37.53
2018-09-30T04:32:03.548Z,39.80
2018-09-30T04:34:35.316Z,39.53
2018-09-30T04:37:05.867Z,35.83
2018-09-30T04:39:36.742Z,40.00
2018-09-30T04:42:08.296Z,38.27
2018-09-30T04:44:39.163Z,38.73
2018-09-30T04:47:10.200Z,35.90
2018-09-30T04:49:41.865Z,41.83
2018-09-30T04:52:13.763Z,33.67
2018-09-30T04:54:44.989Z,38.10
2018-09-30T04:57:15.536Z,33.50
2018-09-30T04:59:46.103Z,35.17
2018-09-30T05:02:17.425Z,32.43
2018-09-30T05:04:48.665Z,38.03
2018-09-30T05:07:19.582Z,34.97
2018-09-30T05:09:50.142Z,34.43
2018-09-30T05:12:21.200Z,30.83
2018-09-30T05:14:52.265Z,33.43
2018-09-30T05:17:22.710Z,28.33
2018-09-30T05:19:53.148Z,31.70
2018-09-30T05:22:24.061Z,29.50
2018-09-30T05:24:55.678Z,32.80
2018-09-30T05:27:26.994Z,31.57
2018-09-30T05:29:57.882Z,26.33
2018-09-30T05:32:28.276Z,27.43
2018-09-30T05:34:58.616Z,26.50
2018-09-30T05:37:29.143Z,30.67
2018-09-30T05:39:59.677Z,27.00
2018-09-30T05:42:31.452Z,27.63
2018-09-30T05:45:02.226Z,30.20
2018-09-30T05:47:33.232Z,26.10
2018-09-30T05:50:04.388Z,28.27
2018-09-30T05:52:34.975Z,26.10
2018-09-30T05:55:06.045Z,23.23
2018-09-30T05:57:37.696Z,23.63
2018-09-30T06:00:08.522Z,23.07
2018-09-30T06:02:39.318Z,23.40
2018-09-30T06:05:09.816Z,24.27
2018-09-30T06:07:41.190Z,24.07
2018-09-30T06:10:11.808Z,22.63
2018-09-30T06:12:42.578Z,21.77
2018-09-30T06:15:13.315Z,22.53
2018-09-30T06:17:43.916Z,21.67
2018-09-30T06:20:14.416Z,22.67
2018-09-30T06:22:45.587Z,19.70
2018-09-30T06:25:17.187Z,19.33
2018-09-30T06:27:48.629Z,22.70
2018-09-30T06:30:20.109Z,24.97
2018-09-30T06:32:50.836Z,20.57
2018-09-30T06:35:21.411Z,19.07
2018-09-30T06:37:52.986Z,18.23
2018-09-30T06:40:24.166Z,21.73
2018-09-30T06:42:54.845Z,19.70
2018-09-30T06:45:26.481Z,19.97
2018-09-30T06:47:58.143Z,18.37
2018-09-30T06:50:29.240Z,18.23
2018-09-30T06:53:00.799Z,19.00
2018-09-30T06:55:31.828Z,18.70
2018-09-30T06:58:02.373Z,20.80
2018-09-30T07:00:33.159Z,19.60
2018-09-30T07:03:03.946Z,21.47
2018-09-30T07:05:34.896Z,21.23
2018-09-30T07:08:05.723Z,20.93
2018-09-30T07:10:36.591Z,20.83
2018-09-30T07:13:08.172Z,20.90
2018-09-30T07:15:39.491Z,21.20
2018-09-30T07:18:09.832Z,21.60
2018-09-30T07:20:40.983Z,21.70
2018-09-30T07:23:13.751Z,20.00
2018-09-30T07:25:44.468Z,18.63
2018-09-30T07:28:14.581Z,18.13
2018-09-30T07:30:45.311Z,18.27
2018-09-30T07:33:15.948Z,18.10
2018-09-30T07:35:47.997Z,19.17
2018-09-30T07:38:18.593Z,17.03
2018-09-30T07:40:49.739Z,17.27
2018-09-30T07:43:20.695Z,16.67
2018-09-30T07:45:52.385Z,16.20
2018-09-30T07:48:22.873Z,16.63
2018-09-30T07:50:54.263Z,14.57
2018-09-30T07:53:24.414Z,14.90
2018-09-30T07:55:54.749Z,16.50
2018-09-30T07:58:25.727Z,15.70
2018-09-30T08:00:57.236Z,14.37
2018-09-30T08:03:28.744Z,15.00
2018-09-30T08:05:59.463Z,14.80
2018-09-30T08:08:30.393Z,14.77
2018-09-30T08:11:01.916Z,15.60
2018-09-30T08:13:32.926Z,14.67
2018-09-30T08:16:03.913Z,15.40
2018-09-30T08:18:34.056Z,15.73
2018-09-30T08:21:04.548Z,14.67
2018-09-30T08:23:35.812Z,14.63
2018-09-30T08:26:06.099Z,13.93
2018-09-30T08:28:36.069Z,13.43
2018-09-30T08:31:06.299Z,14.10
2018-09-30T08:33:37.776Z,13.30
2018-09-30T08:36:13.877Z,13.63
2018-09-30T08:38:45.561Z,12.70
2018-09-30T08:41:16.389Z,13.50
2018-09-30T08:43:47.713Z,12.87
2018-09-30T08:46:19.437Z,12.93
2018-09-30T08:48:50.831Z,12.70
2018-09-30T08:51:21.694Z,14.57
2018-09-30T08:53:52.966Z,12.47
2018-09-30T08:56:23.783Z,13.30
2018-09-30T08:58:54.842Z,14.03
2018-09-30T09:01:26.080Z,14.37
2018-09-30T09:03:56.670Z,13.70
2018-09-30T09:06:27.189Z,12.57
2018-09-30T09:08:57.660Z,12.60
2018-09-30T09:11:27.847Z,13.50
2018-09-30T09:13:58.300Z,13.13
2018-09-30T09:16:29.146Z,12.13
2018-09-30T09:19:00.516Z,13.17
2018-09-30T09:21:31.169Z,12.67
2018-09-30T09:24:01.868Z,12.63
2018-09-30T09:26:32.720Z,14.80
2018-09-30T09:29:03.415Z,14.23
2018-09-30T09:31:34.763Z,13.50
2018-09-30T09:34:06.518Z,12.57
2018-09-30T09:36:37.249Z,11.00
2018-09-30T09:39:10.518Z,12.00
2018-09-30T09:41:40.797Z,12.10
2018-09-30T09:44:11.957Z,11.50
2018-09-30T09:46:42.635Z,12.20
2018-09-30T09:49:13.683Z,11.87
2018-09-30T09:51:44.984Z,10.77
2018-09-30T09:54:15.363Z,10.90
2018-09-30T09:56:46.174Z,11.13
2018-09-30T09:59:16.928Z,9.80
2018-09-30T10:01:47.672Z,9.83
2018-09-30T10:04:19.845Z,10.30
2018-09-30T10:06:50.625Z,10.27
2018-09-30T10:09:21.585Z,10.70
2018-09-30T10:11:52.006Z,9.80
2018-09-30T10:14:23.507Z,9.40
2018-09-30T10:16:53.998Z,9.50
2018-09-30T10:19:24.553Z,9.87
2018-09-30T10:21:54.911Z,10.20
2018-09-30T10:24:25.814Z,10.80
2018-09-30T10:26:56.470Z,10.60
2018-09-30T10:29:27.403Z,10.40
2018-09-30T10:31:58.452Z,10.30
2018-09-30T10:34:29.227Z,10.30
2018-09-30T10:36:59.917Z,10.77
2018-09-30T10:39:30.956Z,9.87
2018-09-30T10:42:02.620Z,10.60
2018-09-30T10:44:33.623Z,8.93
2018-09-30T10:47:04.661Z,10.20
2018-09-30T10:49:35.265Z,10.07
2018-09-30T10:52:06.219Z,9.80
2018-09-30T10:54:36.633Z,9.00
2018-09-30T10:57:08.337Z,10.23
2018-09-30T10:59:39.045Z,9.27
2018-09-30T11:02:09.793Z,10.60
2018-09-30T11:04:40.706Z,9.17
2018-09-30T11:07:12.122Z,9.87
2018-09-30T11:09:43.151Z,10.00
2018-09-30T11:12:13.789Z,8.23
2018-09-30T11:14:44.905Z,9.20
2018-09-30T11:17:15.925Z,8.90
2018-09-30T11:19:47.621Z,9.57
2018-09-30T11:22:18.831Z,9.07
2018-09-30T11:24:49.710Z,8.90
2018-09-30T11:27:21.016Z,9.50
2018-09-30T11:29:52.026Z,9.90
2018-09-30T11:32:23.134Z,9.47
2018-09-30T11:34:54.064Z,10.47
2018-09-30T11:37:24.856Z,10.70
2018-09-30T11:39:55.628Z,9.53
2018-09-30T11:42:26.764Z,10.47
2018-09-30T11:44:57.940Z,11.27
2018-09-30T11:47:28.744Z,10.70
2018-09-30T11:49:59.973Z,10.73
2018-09-30T11:52:31.578Z,10.00
2018-09-30T11:55:02.339Z,9.10
2018-09-30T11:57:35.469Z,10.27
2018-09-30T12:00:07.624Z,11.10
2018-09-30T12:02:38.044Z,10.07
2018-09-30T12:05:08.357Z,11.00
2018-09-30T12:07:38.648Z,9.97
2018-09-30T12:10:11.869Z,10.53
2018-09-30T12:12:43.002Z,11.10
2018-09-30T12:15:13.859Z,10.30
2018-09-30T12:17:44.241Z,10.10
2018-09-30T12:20:15.185Z,11.30
2018-09-30T12:22:45.841Z,11.60
2018-09-30T12:25:17.409Z,11.03
2018-09-30T12:27:48.329Z,9.93
2018-09-30T12:30:18.961Z,10.17
2018-09-30T12:32:49.333Z,10.50
2018-09-30T12:35:19.630Z,10.10
2018-09-30T12:37:50.079Z,10.63
2018-09-30T12:40:20.639Z,10.60
2018-09-30T12:42:51.331Z,9.40
2018-09-30T12:45:22.257Z,9.63
2018-09-30T12:47:52.384Z,10.40
2018-09-30T12:50:23.051Z,10.17
2018-09-30T12:52:55.507Z,9.37
2018-09-30T12:55:26.227Z,9.23
2018-09-30T12:57:56.871Z,10.10
2018-09-30T13:00:28.689Z,9.57
2018-09-30T13:03:00.172Z,10.20
2018-09-30T13:05:31.683Z,9.17
2018-09-30T13:08:01.601Z,9.83
2018-09-30T13:10:32.330Z,9.23
2018-09-30T13:13:02.475Z,8.50
2018-09-30T13:15:33.565Z,10.33
2018-09-30T13:18:04.186Z,9.60
2018-09-30T13:20:34.955Z,9.60
2018-09-30T13:23:05.665Z,8.93
2018-09-30T13:25:36.229Z,9.57
2018-09-30T13:28:07.185Z,9.13
2018-09-30T13:30:37.986Z,8.97
2018-09-30T13:33:08.321Z,8.93
2018-09-30T13:35:38.690Z,10.07
2018-09-30T13:38:09.094Z,9.70
2018-09-30T13:40:39.228Z,9.43
2018-09-30T13:43:09.811Z,9.63
2018-09-30T13:45:41.028Z,9.00
2018-09-30T13:48:11.767Z,9.53
2018-09-30T13:50:42.545Z,9.87
2018-09-30T13:53:13.463Z,9.83
2018-09-30T13:55:44.317Z,9.43
2018-09-30T13:58:15.289Z,9.70
2018-09-30T14:00:46.225Z,9.20
2018-09-30T14:03:17.483Z,10.63
2018-09-30T14:05:48.163Z,10.70
2018-09-30T14:08:18.302Z,10.13
2018-09-30T14:10:48.381Z,9.67
2018-09-30T14:13:18.575Z,10.53
2018-09-30T14:15:49.027Z,9.17
2018-09-30T14:18:19.612Z,9.37
2018-09-30T14:20:50.263Z,9.20
2018-09-30T14:23:21.388Z,10.50
2018-09-30T14:25:52.180Z,10.17
2018-09-30T14:28:23.518Z,9.70
2018-09-30T14:30:54.615Z,10.03
2018-09-30T14:33:25.219Z,10.40
2018-09-30T14:35:55.564Z,9.70
2018-09-30T14:38:26.066Z,9.40
2018-09-30T14:40:57.419Z,9.80
2018-09-30T14:43:28.026Z,9.30
2018-09-30T14:45:58.827Z,9.93
2018-09-30T14:48:30.202Z,10.60
2018-09-30T14:51:01.490Z,9.00
2018-09-30T14:53:32.325Z,9.90
2018-09-30T14:56:02.584Z,9.40
2018-09-30T14:58:33.243Z,10.10
2018-09-30T15:01:03.987Z,9.80
2018-09-30T15:03:34.388Z,9.83
2018-09-30T15:06:05.381Z,10.37
2018-09-30T15:08:36.463Z,9.77
2018-09-30T15:11:07.626Z,9.97
2018-09-30T15:13:39.031Z,10.20
2018-09-30T15:16:09.482Z,10.20
2018-09-30T15:18:40.296Z,12.50
2018-09-30T15:21:11.187Z,11.13
2018-09-30T15:23:42.215Z,12.37
2018-09-30T15:26:13.141Z,11.03
2018-09-30T15:28:44.000Z,11.17
2018-09-30T15:31:14.526Z,11.90
2018-09-30T15:33:45.103Z,12.00
2018-09-30T15:36:16.319Z,12.00
2018-09-30T15:38:47.435Z,11.33
2018-09-30T15:41:18.365Z,10.80
2018-09-30T15:43:49.170Z,10.40
2018-09-30T15:46:20.170Z,10.43
2018-09-30T15:48:54.586Z,10.37
2018-09-30T15:51:25.420Z,11.03
2018-09-30T15:53:57.547Z,11.57
2018-09-30T15:56:28.591Z,13.03
2018-09-30T15:58:59.428Z,11.90
2018-09-30T16:01:32.209Z,10.97
2018-09-30T16:04:03.354Z,10.10
2018-09-30T16:06:34.371Z,10.20
2018-09-30T16:09:05.465Z,10.83
2018-09-30T16:11:36.584Z,10.60
2018-09-30T16:14:07.826Z,12.37
2018-09-30T16:16:38.906Z,11.53
2018-09-30T16:19:10.048Z,12.53
2018-09-30T16:21:40.789Z,12.13
2018-09-30T16:24:12.070Z,10.70
2018-09-30T16:26:42.706Z,12.73
2018-09-30T16:29:14.679Z,13.50
2018-09-30T16:31:46.452Z,14.77
2018-09-30T16:34:19.833Z,13.10
2018-09-30T16:36:50.653Z,11.37
2018-09-30T16:39:21.866Z,11.93
2018-09-30T16:41:52.336Z,12.70
2018-09-30T16:44:24.833Z,12.93
2018-09-30T16:46:56.465Z,13.40
2018-09-30T16:49:28.427Z,14.50
2018-09-30T16:51:59.829Z,12.10
2018-09-30T16:54:30.511Z,13.50
2018-09-30T16:57:01.309Z,17.70
2018-09-30T16:59:32.364Z,15.60
2018-09-30T17:02:03.110Z,13.80
2018-09-30T17:04:33.585Z,14.50
2018-09-30T17:07:05.343Z,12.90
2018-09-30T17:09:36.429Z,13.50
2018-09-30T17:12:07.383Z,13.43
2018-09-30T17:14:39.490Z,13.43
2018-09-30T17:17:10.501Z,14.13
2018-09-30T17:19:41.464Z,14.17
2018-09-30T17:22:12.946Z,19.63
2018-09-30T17:24:44.017Z,18.20
2018-09-30T17:27:14.314Z,12.10
2018-09-30T17:29:45.986Z,13.33
2018-09-30T17:32:16.578Z,12.67
2018-09-30T17:34:47.984Z,14.33
2018-09-30T17:37:18.226Z,12.90
2018-09-30T17:39:49.435Z,13.10
2018-09-30T17:42:20.757Z,13.73
2018-09-30T17:44:52.997Z,13.83
2018-09-30T17:47:25.326Z,14.17
2018-09-30T17:49:56.826Z,15.83
2018-09-30T17:52:27.987Z,14.77
2018-09-30T17:55:00.114Z,17.17
2018-09-30T17:57:31.570Z,15.23
2018-09-30T18:00:02.585Z,15.60
2018-09-30T18:02:32.867Z,18.03
2018-09-30T18:05:03.908Z,18.80
2018-09-30T18:07:34.806Z,16.53
2018-09-30T18:10:06.255Z,18.80
2018-09-30T18:12:37.714Z,18.53
2018-09-30T18:15:10.176Z,16.47
2018-09-30T18:17:41.945Z,17.37
2018-09-30T18:20:13.010Z,16.20
2018-09-30T18:22:44.587Z,16.87
2018-09-30T18:25:15.908Z,21.00
2018-09-30T18:27:46.706Z,22.17
2018-09-30T18:30:18.144Z,21.10
2018-09-30T18:32:48.956Z,22.90
2018-09-30T18:35:20.076Z,19.43
2018-09-30T18:37:51.145Z,21.07
2018-09-30T18:40:23.148Z,21.23
2018-09-30T18:42:54.732Z,21.40
2018-09-30T18:45:26.224Z,24.20
2018-09-30T18:47:57.949Z,20.43
2018-09-30T18:50:31.194Z,20.03
2018-09-30T18:53:13.944Z,20.23
2018-09-30T18:55:49.276Z,24.00
2018-09-30T19:01:11.589Z,22.80
2018-09-30T19:03:44.026Z,21.13
2018-09-30T19:06:29.465Z,20.67
2018-09-30T19:09:03.656Z,21.07
2018-09-30T19:11:36.019Z,19.37
2018-09-30T19:14:07.347Z,17.00
2018-09-30T19:16:38.426Z,17.43
2018-09-30T19:19:11.193Z,17.20
2018-09-30T19:21:46.107Z,18.40
2018-09-30T19:24:25.263Z,17.70
2018-09-30T19:27:07.545Z,16.37
2018-09-30T19:32:43.026Z,16.73
2018-09-30T19:35:17.306Z,17.20
2018-09-30T19:37:56.542Z,16.63
2018-09-30T19:40:30.709Z,16.47
2018-09-30T19:43:06.944Z,17.03
2018-09-30T19:45:40.169Z,16.20
2018-09-30T19:48:14.997Z,16.67
2018-09-30T19:50:46.907Z,15.23
2018-09-30T19:53:24.144Z,15.37
2018-09-30T19:55:55.628Z,15.00
2018-09-30T19:58:30.957Z,13.20
2018-09-30T20:03:47.414Z,12.60
2018-09-30T20:06:30.995Z,15.50
2018-09-30T20:09:05.269Z,14.03
2018-09-30T20:11:42.592Z,13.80
2018-09-30T20:14:25.940Z,12.10
2018-09-30T20:16:57.951Z,14.57
2018-09-30T20:19:32.931Z,13.17
2018-09-30T20:22:12.312Z,13.40
2018-09-30T20:24:43.314Z,13.97
2018-09-30T20:27:14.066Z,13.20
2018-09-30T20:29:51.764Z,13.63
2018-09-30T20:32:24.055Z,13.57
2018-09-30T20:34:59.216Z,13.60
2018-09-30T20:37:30.800Z,13.03
2018-09-30T20:40:03.418Z,11.87
2018-09-30T20:42:36.747Z,11.27
2018-09-30T20:45:15.624Z,11.70
2018-09-30T20:47:46.909Z,12.33
2018-09-30T20:50:17.662Z,12.10
2018-09-30T20:52:52.824Z,10.70
2018-09-30T20:55:38.424Z,11.93
2018-09-30T20:58:13.222Z,11.17
2018-09-30T21:00:59.936Z,11.90
2018-09-30T21:06:46.409Z,11.65
2018-09-30T21:09:19.622Z,11.63
2018-09-30T21:11:50.852Z,11.50
2018-09-30T21:14:23.760Z,11.67
2018-09-30T21:17:01.740Z,11.73
2018-09-30T21:19:36.622Z,12.90
2018-09-30T21:22:13.251Z,12.27
2018-09-30T21:24:45.632Z,11.20
2018-09-30T21:27:18.545Z,11.50
2018-09-30T21:29:50.629Z,12.00
2018-09-30T21:32:22.925Z,11.80
2018-09-30T21:34:57.422Z,12.77
2018-09-30T21:37:31.822Z,11.63
2018-09-30T21:40:04.087Z,13.17
2018-09-30T21:42:34.979Z,11.63
2018-09-30T21:45:05.844Z,12.60
2018-09-30T21:47:36.661Z,13.67
2018-09-30T21:50:10.435Z,14.03
2018-09-30T21:52:41.337Z,12.97
2018-09-30T21:55:14.178Z,12.20
2018-09-30T21:57:45.303Z,12.03
2018-09-30T22:00:19.965Z,12.93
2018-09-30T22:02:50.364Z,12.30
2018-09-30T22:05:21.656Z,13.13
2018-09-30T22:07:52.097Z,13.43
2018-09-30T22:10:23.135Z,13.30
2018-09-30T22:12:53.896Z,14.93
2018-09-30T22:15:25.694Z,14.13
2018-09-30T22:17:56.936Z,14.63
2018-09-30T22:20:27.635Z,14.77
2018-09-30T22:22:58.870Z,13.60
2018-09-30T22:25:29.589Z,15.20
2018-09-30T22:28:00.538Z,14.50
2018-09-30T22:30:32.531Z,14.83
2018-09-30T22:33:04.284Z,14.13
2018-09-30T22:35:35.336Z,13.90
2018-09-30T22:38:06.549Z,17.67
2018-09-30T22:40:37.207Z,15.37
2018-09-30T22:43:07.528Z,14.93
2018-09-30T22:45:39.105Z,15.23
2018-09-30T22:48:09.848Z,14.80
2018-09-30T22:50:40.985Z,15.67
2018-09-30T22:53:12.679Z,15.73
2018-09-30T22:55:43.793Z,15.87
2018-09-30T22:58:14.745Z,17.33
2018-09-30T23:00:45.172Z,18.23
2018-09-30T23:03:15.670Z,21.43
2018-09-30T23:05:46.222Z,19.50
2018-09-30T23:08:16.554Z,21.97
2018-09-30T23:10:47.999Z,21.57
2018-09-30T23:13:19.048Z,22.70
2018-09-30T23:15:49.943Z,24.87
2018-09-30T23:18:20.747Z,26.43
2018-09-30T23:20:51.912Z,21.87
2018-09-30T23:23:22.984Z,21.00
2018-09-30T23:25:53.467Z,22.47
2018-09-30T23:28:24.322Z,25.13
2018-09-30T23:30:55.196Z,24.10
2018-09-30T23:33:26.215Z,25.57
2018-09-30T23:35:56.882Z,24.60
2018-09-30T23:38:27.343Z,22.27
2018-09-30T23:40:57.831Z,18.90
2018-09-30T23:43:28.351Z,19.63
2018-09-30T23:45:58.647Z,20.93
2018-09-30T23:48:29.998Z,23.50
2018-09-30T23:51:00.803Z,19.47
2018-09-30T23:53:31.782Z,17.83
2018-09-30T23:56:02.706Z,18.00
2018-09-30T23:58:33.604Z,18.20
